Time;durP1;ratioP1;P1;durP2;ratioP2;P2;SDS_P1;SDS_P2;PMS_P1;PMS_P2;Temp;Humidity;BMP_temperature;BMP_pressure;BME280_temperature;BME280_humidity;BME280_pressure;Samples;Min_cycle;Max_cycle;Signal;HPM_P1;HPM_P2
2022/05/31 00:01:34;;;;;;;8.40;2.70;;;;;;;;;;6275439;22;20003;-82
2022/05/31 00:04:00;;;;;;;5.30;2.53;;;;;;;;;;6248972;22;20087;-82
2022/05/31 00:06:25;;;;;;;5.05;2.78;;;;;;;;;;6275037;22;19996;-83
2022/05/31 00:08:52;;;;;;;4.53;2.60;;;;;;;;;;6275857;22;20007;-82
2022/05/31 00:11:18;;;;;;;11.10;3.00;;;;;;;;;;6249204;22;20010;-82
2022/05/31 00:13:44;;;;;;;3.42;2.50;;;;;;;;;;6249288;22;20439;-82
2022/05/31 00:16:10;;;;;;;9.95;2.63;;;;;;;;;;6275516;22;20006;-82
2022/05/31 00:18:35;;;;;;;6.90;2.85;;;;;;;;;;6275262;22;20008;-82
2022/05/31 00:21:01;;;;;;;6.25;2.95;;;;;;;;;;6274910;22;20316;-83
2022/05/31 00:23:26;;;;;;;9.48;3.17;;;;;;;;;;6275288;22;20022;-82
2022/05/31 00:25:52;;;;;;;3.72;2.72;;;;;;;;;;6269620;22;20469;-82
2022/05/31 00:28:17;;;;;;;3.83;3.00;;;;;;;;;;6273734;22;20011;-82
2022/05/31 00:30:43;;;;;;;7.30;3.00;;;;;;;;;;6275289;22;20331;-82
2022/05/31 00:33:10;;;;;;;6.63;2.50;;;;;;;;;;6275071;22;20411;-82
2022/05/31 00:35:38;;;;;;;6.10;2.97;;;;;;;;;;6248348;22;20327;-83
2022/05/31 00:38:04;;;;;;;6.30;2.97;;;;;;;;;;6275473;22;20070;-83
2022/05/31 00:40:30;;;;;;;3.67;2.72;;;;;;;;;;6223371;22;20082;-84
2022/05/31 00:43:00;;;;;;;14.13;3.53;;;;;;;;;;6273705;22;20365;-82
2022/05/31 00:45:56;;;;;;;6.22;2.85;;;;;;;;;;6275393;22;20003;-82
2022/05/31 00:48:24;;;;;;;6.05;3.42;;;;;;;;;;6273642;22;20027;-83
2022/05/31 00:51:01;;;;;;;7.30;3.13;;;;;;;;;;6273324;22;20014;-82
2022/05/31 00:53:29;;;;;;;6.25;3.05;;;;;;;;;;6248259;22;19995;-83
2022/05/31 00:56:01;;;;;;;4.55;3.10;;;;;;;;;;6273568;22;20054;-82
2022/05/31 00:58:35;;;;;;;4.55;3.08;;;;;;;;;;6248565;22;20065;-82
2022/05/31 01:01:04;;;;;;;7.22;3.30;;;;;;;;;;6248890;22;20421;-82
2022/05/31 01:03:29;;;;;;;5.05;3.20;;;;;;;;;;6274346;22;20000;-82
2022/05/31 01:05:55;;;;;;;6.82;3.30;;;;;;;;;;6273763;22;20000;-83
2022/05/31 01:08:22;;;;;;;7.68;3.60;;;;;;;;;;6274148;22;20000;-83
2022/05/31 01:10:47;;;;;;;10.15;3.22;;;;;;;;;;6275149;22;20006;-82
2022/05/31 01:13:16;;;;;;;7.72;3.55;;;;;;;;;;6273637;22;20035;-81
2022/05/31 01:15:42;;;;;;;7.43;3.13;;;;;;;;;;6249039;22;20004;-81
2022/05/31 01:18:08;;;;;;;7.30;3.33;;;;;;;;;;6247761;22;20350;-81
2022/05/31 01:20:33;;;;;;;8.13;3.47;;;;;;;;;;6274898;22;20043;-80
2022/05/31 01:23:08;;;;;;;12.23;3.80;;;;;;;;;;6273511;22;20371;-82
2022/05/31 01:25:52;;;;;;;5.22;3.63;;;;;;;;;;6273800;22;20011;-81
2022/05/31 01:28:35;;;;;;;5.32;3.60;;;;;;;;;;6275108;22;20728;-82
2022/05/31 01:31:07;;;;;;;10.50;5.60;;;;;;;;;;6274886;22;20003;-83
2022/05/31 01:33:42;;;;;;;12.02;5.60;;;;;;;;;;6249204;22;20004;-84
2022/05/31 01:36:16;;;;;;;9.70;5.85;;;;;;;;;;6273410;22;20004;-83
2022/05/31 01:38:56;;;;;;;9.70;5.45;;;;;;;;;;6248650;22;20897;-83
2022/05/31 01:41:37;;;;;;;11.20;5.85;;;;;;;;;;6273183;22;20011;-83
2022/05/31 01:44:04;;;;;;;12.68;6.10;;;;;;;;;;6275251;22;20000;-82
2022/05/31 01:46:32;;;;;;;11.40;5.63;;;;;;;;;;6248525;22;20027;-83
2022/05/31 01:48:58;;;;;;;11.80;5.05;;;;;;;;;;6298750;22;19992;-83
2022/05/31 01:51:23;;;;;;;13.43;5.60;;;;;;;;;;6248458;22;20093;-82
2022/05/31 01:53:49;;;;;;;7.43;4.93;;;;;;;;;;6248016;22;20465;-82
2022/05/31 01:56:15;;;;;;;9.55;4.32;;;;;;;;;;6274764;22;20004;-82
2022/05/31 01:58:41;;;;;;;8.32;4.63;;;;;;;;;;6273143;22;19996;-82
2022/05/31 02:01:08;;;;;;;13.00;4.32;;;;;;;;;;6247825;22;20008;-82
2022/05/31 02:03:33;;;;;;;8.52;4.22;;;;;;;;;;6274386;22;20368;-82
2022/05/31 02:05:59;;;;;;;11.73;4.80;;;;;;;;;;6274720;22;20030;-82
2022/05/31 02:08:26;;;;;;;9.82;4.63;;;;;;;;;;6275753;22;20065;-82
2022/05/31 02:10:51;;;;;;;9.80;4.88;;;;;;;;;;6273187;22;20004;-82
2022/05/31 02:13:17;;;;;;;9.95;5.00;;;;;;;;;;6247738;22;20607;-82
2022/05/31 02:15:43;;;;;;;6.55;4.70;;;;;;;;;;6249337;22;20007;-82
2022/05/31 02:18:09;;;;;;;7.28;4.70;;;;;;;;;;6276580;22;20492;-82
2022/05/31 02:20:34;;;;;;;11.13;4.78;;;;;;;;;;6275188;22;20004;-81
2022/05/31 02:22:59;;;;;;;7.65;5.00;;;;;;;;;;6276340;22;20011;-83
2022/05/31 02:25:25;;;;;;;12.57;5.55;;;;;;;;;;6276613;22;20017;-82
2022/05/31 02:27:51;;;;;;;10.68;5.47;;;;;;;;;;6224461;22;20350;-82
2022/05/31 02:30:16;;;;;;;17.65;4.90;;;;;;;;;;6277610;22;19996;-80
2022/05/31 02:32:42;;;;;;;14.00;5.15;;;;;;;;;;6224252;22;20370;-82
2022/05/31 02:35:09;;;;;;;8.80;5.18;;;;;;;;;;6276262;22;19999;-82
2022/05/31 02:37:35;;;;;;;11.52;5.50;;;;;;;;;;6249965;22;20342;-82
2022/05/31 02:40:00;;;;;;;13.80;4.93;;;;;;;;;;6276555;22;20000;-83
2022/05/31 02:42:26;;;;;;;13.68;4.85;;;;;;;;;;6276232;22;20027;-83
2022/05/31 02:44:51;;;;;;;10.05;5.28;;;;;;;;;;6275894;22;20054;-81
2022/05/31 02:47:17;;;;;;;12.68;5.15;;;;;;;;;;6276240;22;20007;-82
2022/05/31 02:49:43;;;;;;;9.82;5.10;;;;;;;;;;6276100;22;20004;-80
2022/05/31 02:52:09;;;;;;;10.02;5.07;;;;;;;;;;6249377;22;20004;-81
2022/05/31 02:54:35;;;;;;;15.70;4.53;;;;;;;;;;6276117;22;20070;-82
2022/05/31 02:57:00;;;;;;;8.00;5.28;;;;;;;;;;6249067;22;20011;-82
2022/05/31 02:59:26;;;;;;;9.88;5.30;;;;;;;;;;6275706;22;20070;-82
2022/05/31 03:01:51;;;;;;;12.18;4.93;;;;;;;;;;6276121;22;20620;-81
2022/05/31 03:04:18;;;;;;;10.63;4.75;;;;;;;;;;6276066;22;20004;-82
2022/05/31 03:06:43;;;;;;;10.35;4.65;;;;;;;;;;6276634;22;20327;-82
2022/05/31 03:09:09;;;;;;;10.65;5.10;;;;;;;;;;6249001;22;20010;-82
2022/05/31 03:11:48;;;;;;;9.63;5.45;;;;;;;;;;6275921;22;20090;-82
2022/05/31 03:14:25;;;;;;;7.00;4.78;;;;;;;;;;6251264;22;20430;-82
2022/05/31 03:16:57;;;;;;;10.05;5.03;;;;;;;;;;6276126;22;19999;-83
2022/05/31 03:19:27;;;;;;;9.93;5.43;;;;;;;;;;6249121;22;20000;-81
2022/05/31 03:21:55;;;;;;;12.73;5.72;;;;;;;;;;6224269;22;20464;-82
2022/05/31 03:24:24;;;;;;;13.93;5.03;;;;;;;;;;6250978;22;20075;-82
2022/05/31 03:26:50;;;;;;;8.38;4.75;;;;;;;;;;6274423;22;20486;-83
2022/05/31 03:29:16;;;;;;;13.80;4.82;;;;;;;;;;6248536;22;20006;-82
2022/05/31 03:31:41;;;;;;;7.50;5.18;;;;;;;;;;6274500;22;20329;-82
2022/05/31 03:34:07;;;;;;;12.95;5.32;;;;;;;;;;6276485;22;20075;-83
2022/05/31 03:36:33;;;;;;;15.05;5.10;;;;;;;;;;6224165;22;20014;-82
2022/05/31 03:38:59;;;;;;;13.43;5.25;;;;;;;;;;6274394;22;20027;-83
2022/05/31 03:41:25;;;;;;;7.78;5.07;;;;;;;;;;6276293;22;20008;-82
2022/05/31 03:43:50;;;;;;;13.60;5.53;;;;;;;;;;6275314;22;20000;-82
2022/05/31 03:46:16;;;;;;;10.77;5.00;;;;;;;;;;6275940;22;20065;-83
2022/05/31 03:48:41;;;;;;;7.82;5.03;;;;;;;;;;6249139;22;19996;-83
2022/05/31 03:51:08;;;;;;;11.60;5.20;;;;;;;;;;6275466;22;20418;-82
2022/05/31 03:53:34;;;;;;;11.18;4.45;;;;;;;;;;6275941;22;20334;-83
2022/05/31 03:56:08;;;;;;;7.30;4.75;;;;;;;;;;6248687;22;19996;-83
2022/05/31 03:58:34;;;;;;;12.43;4.80;;;;;;;;;;6275553;22;19999;-82
2022/05/31 04:00:59;;;;;;;9.77;4.72;;;;;;;;;;6276175;22;20000;-83
2022/05/31 04:03:25;;;;;;;11.18;4.47;;;;;;;;;;6275420;22;20000;-83
2022/05/31 04:05:50;;;;;;;9.50;4.25;;;;;;;;;;6274345;22;20089;-83
2022/05/31 04:08:16;;;;;;;12.90;4.88;;;;;;;;;;6273972;22;20066;-82
2022/05/31 04:10:43;;;;;;;7.60;4.75;;;;;;;;;;6275405;22;20419;-83
2022/05/31 04:13:08;;;;;;;8.65;4.55;;;;;;;;;;6248101;22;20000;-82
2022/05/31 04:15:34;;;;;;;9.25;4.88;;;;;;;;;;6248792;22;20429;-82
2022/05/31 04:17:59;;;;;;;8.25;4.93;;;;;;;;;;6275380;22;20537;-83
2022/05/31 04:20:25;;;;;;;14.20;5.20;;;;;;;;;;6275483;22;20004;-83
2022/05/31 04:22:51;;;;;;;14.02;5.32;;;;;;;;;;6278335;22;20430;-83
2022/05/31 04:25:16;;;;;;;11.32;5.15;;;;;;;;;;6275116;22;20012;-83
2022/05/31 04:27:42;;;;;;;12.95;5.53;;;;;;;;;;6248014;22;20038;-83
2022/05/31 04:30:08;;;;;;;15.15;4.97;;;;;;;;;;6248214;22;20007;-83
2022/05/31 04:32:33;;;;;;;8.27;5.30;;;;;;;;;;6248761;22;20003;-82
2022/05/31 04:34:59;;;;;;;10.98;4.78;;;;;;;;;;6249025;22;20000;-81
2022/05/31 04:37:24;;;;;;;10.07;4.60;;;;;;;;;;6275358;22;20003;-83
2022/05/31 04:39:49;;;;;;;10.48;4.47;;;;;;;;;;6275651;22;20057;-83
2022/05/31 04:42:16;;;;;;;11.45;4.60;;;;;;;;;;6248716;22;20026;-81
2022/05/31 04:44:41;;;;;;;14.68;4.30;;;;;;;;;;6284451;22;20358;-82
2022/05/31 04:47:07;;;;;;;7.78;3.95;;;;;;;;;;6225035;22;20083;-82
2022/05/31 04:49:38;;;;;;;7.68;4.35;;;;;;;;;;6276284;22;20032;-82
2022/05/31 04:52:22;;;;;;;10.85;4.78;;;;;;;;;;6248994;22;20050;-81
2022/05/31 04:54:47;;;;;;;8.57;4.50;;;;;;;;;;6248077;22;20092;-82
2022/05/31 04:57:13;;;;;;;11.40;4.53;;;;;;;;;;6249437;22;20046;-78
2022/05/31 04:59:38;;;;;;;12.85;4.28;;;;;;;;;;6243748;22;20007;-79
2022/05/31 05:02:05;;;;;;;11.07;4.38;;;;;;;;;;6271044;22;20411;-79
2022/05/31 05:04:51;;;;;;;18.20;4.90;;;;;;;;;;6244974;22;20028;-79
2022/05/31 05:07:17;;;;;;;8.80;4.57;;;;;;;;;;6270093;22;20437;-78
2022/05/31 05:09:49;;;;;;;8.73;4.78;;;;;;;;;;6271282;22;20004;-78
2022/05/31 05:12:18;;;;;;;11.48;5.32;;;;;;;;;;6219456;22;20003;-78
2022/05/31 05:14:44;;;;;;;8.57;4.63;;;;;;;;;;6185032;22;20099;-80
2022/05/31 05:17:09;;;;;;;11.38;5.00;;;;;;;;;;6273651;22;20000;-77
2022/05/31 05:19:35;;;;;;;8.48;4.78;;;;;;;;;;6271430;22;20007;-77
2022/05/31 05:22:01;;;;;;;7.50;5.05;;;;;;;;;;6270725;22;20075;-81
2022/05/31 05:24:27;;;;;;;9.15;4.90;;;;;;;;;;6246012;22;20008;-77
2022/05/31 05:26:52;;;;;;;13.70;4.55;;;;;;;;;;6244155;22;20058;-78
2022/05/31 05:32:06;;;;;;;10.35;5.72;;;;;;;;;;6274202;22;20091;-79
2022/05/31 05:34:31;;;;;;;;;;;;;;;;;;6275299;22;20315;-79
2022/05/31 05:36:57;;;;;;;8.35;4.50;;;;;;;;;;6273683;22;19915;-79
2022/05/31 05:39:22;;;;;;;6.28;4.38;;;;;;;;;;6272697;22;19999;-80
2022/05/31 05:41:49;;;;;;;9.82;4.10;;;;;;;;;;6273485;22;20010;-80
2022/05/31 05:44:15;;;;;;;13.13;4.70;;;;;;;;;;6275080;22;20031;-80
2022/05/31 05:46:41;;;;;;;8.98;4.57;;;;;;;;;;6273271;22;20418;-80
2022/05/31 05:49:12;;;;;;;8.80;4.25;;;;;;;;;;6271916;22;20430;-80
2022/05/31 05:51:41;;;;;;;6.88;4.18;;;;;;;;;;6277267;22;20007;-79
2022/05/31 05:54:16;;;;;;;7.00;4.00;;;;;;;;;;6247638;22;20039;-78
2022/05/31 05:56:52;;;;;;;9.73;4.65;;;;;;;;;;6245662;22;20074;-80
2022/05/31 05:59:20;;;;;;;8.70;4.15;;;;;;;;;;6226630;22;20008;-79
2022/05/31 06:01:48;;;;;;;9.02;5.25;;;;;;;;;;6277290;22;20000;-77
2022/05/31 06:04:48;;;;;;;12.45;5.15;;;;;;;;;;6274185;22;20342;-78
2022/05/31 06:07:30;;;;;;;9.18;5.03;;;;;;;;;;6267873;22;20068;-79
2022/05/31 06:09:58;;;;;;;16.95;5.50;;;;;;;;;;6250525;22;20007;-80
2022/05/31 06:12:26;;;;;;;8.75;5.70;;;;;;;;;;6273132;22;19996;-81
2022/05/31 06:14:55;;;;;;;10.95;5.90;;;;;;;;;;6275707;22;20114;-80
2022/05/31 06:17:23;;;;;;;8.02;5.97;;;;;;;;;;6275209;22;20015;-81
2022/05/31 06:19:49;;;;;;;11.82;6.13;;;;;;;;;;6226034;22;20372;-79
2022/05/31 06:22:14;;;;;;;16.17;5.80;;;;;;;;;;6252870;22;20007;-79
2022/05/31 06:24:40;;;;;;;12.05;5.70;;;;;;;;;;6281185;22;20012;-83
2022/05/31 06:27:05;;;;;;;9.73;5.90;;;;;;;;;;6227959;22;20082;-80
2022/05/31 06:29:31;;;;;;;11.82;6.03;;;;;;;;;;6277597;22;20704;-79
2022/05/31 06:31:56;;;;;;;8.77;5.85;;;;;;;;;;6278267;22;20026;-81
2022/05/31 06:34:23;;;;;;;10.55;6.40;;;;;;;;;;6252053;22;20010;-84
2022/05/31 06:36:49;;;;;;;7.85;6.10;;;;;;;;;;6282354;22;20000;-82
2022/05/31 06:39:15;;;;;;;9.30;6.32;;;;;;;;;;6285495;22;20684;-80
2022/05/31 06:41:40;;;;;;;14.85;6.28;;;;;;;;;;6281415;22;20035;-79
2022/05/31 06:44:06;;;;;;;11.35;6.80;;;;;;;;;;6249589;22;20004;-78
2022/05/31 06:46:31;;;;;;;9.00;6.20;;;;;;;;;;6272634;22;20057;-82
2022/05/31 06:48:59;;;;;;;14.38;7.15;;;;;;;;;;6242970;22;20368;-81
2022/05/31 06:56:56;;;;;;;9.93;7.05;;;;;;;;;;6267007;22;20038;-85
2022/05/31 06:59:21;;;;;;;12.32;7.70;;;;;;;;;;6245164;22;19992;-82
2022/05/31 07:01:48;;;;;;;15.55;7.38;;;;;;;;;;6274415;22;20098;-81
2022/05/31 07:04:16;;;;;;;11.60;7.00;;;;;;;;;;6273922;22;20030;-81
2022/05/31 07:06:41;;;;;;;19.65;8.00;;;;;;;;;;6243887;22;20008;-79
2022/05/31 07:09:09;;;;;;;10.13;7.05;;;;;;;;;;6277641;22;20031;-78
2022/05/31 07:11:35;;;;;;;;;;;;;;;;;;6277003;22;20016;-78
2022/05/31 07:14:03;;;;;;;10.25;7.28;;;;;;;;;;6272499;22;20277;-80
2022/05/31 07:16:30;;;;;;;;;;;;;;;;;;6280143;22;20051;-81
2022/05/31 07:18:55;;;;;;;12.95;7.53;;;;;;;;;;6251995;22;20345;-80
2022/05/31 07:21:21;;;;;;;13.00;8.18;;;;;;;;;;6225762;22;20014;-79
2022/05/31 07:23:46;;;;;;;13.68;8.38;;;;;;;;;;6280353;22;20004;-79
2022/05/31 07:26:13;;;;;;;11.25;7.57;;;;;;;;;;6282316;22;20073;-82
2022/05/31 07:28:39;;;;;;;14.85;8.00;;;;;;;;;;6254009;22;20003;-82
2022/05/31 07:31:11;;;;;;;11.43;7.38;;;;;;;;;;6280861;22;20011;-79
2022/05/31 07:33:37;;;;;;;13.43;7.60;;;;;;;;;;6277820;22;20065;-82
2022/05/31 07:36:04;;;;;;;12.20;6.78;;;;;;;;;;6274446;22;20011;-82
2022/05/31 07:38:29;;;;;;;18.67;8.38;;;;;;;;;;6270323;22;20078;-83
2022/05/31 07:40:55;;;;;;;13.27;7.40;;;;;;;;;;6268589;22;20034;-84
2022/05/31 07:43:25;;;;;;;15.10;8.02;;;;;;;;;;6274498;22;20077;-85
2022/05/31 07:46:05;;;;;;;12.15;7.68;;;;;;;;;;6286094;22;20063;-83
2022/05/31 07:48:32;;;;;;;19.88;7.50;;;;;;;;;;6278710;22;20343;-83
2022/05/31 07:50:58;;;;;;;15.48;7.00;;;;;;;;;;6246374;22;19995;-81
2022/05/31 07:53:24;;;;;;;12.02;7.22;;;;;;;;;;6242631;22;20332;-82
2022/05/31 07:56:06;;;;;;;12.68;7.75;;;;;;;;;;6269986;22;20000;-80
2022/05/31 07:58:42;;;;;;;12.95;7.32;;;;;;;;;;6273718;22;20049;-79
2022/05/31 08:01:10;;;;;;;16.27;8.25;;;;;;;;;;6246183;22;20010;-81
2022/05/31 08:03:40;;;;;;;13.32;7.22;;;;;;;;;;6240189;22;20098;-81
2022/05/31 08:06:07;;;;;;;13.00;6.80;;;;;;;;;;6267234;22;20030;-79
2022/05/31 08:08:39;;;;;;;15.05;6.50;;;;;;;;;;6270737;22;20000;-79
2022/05/31 08:11:12;;;;;;;13.20;6.78;;;;;;;;;;6220889;22;20147;-80
2022/05/31 08:13:41;;;;;;;12.70;7.38;;;;;;;;;;6228813;22;20000;-78
2022/05/31 08:16:07;;;;;;;12.43;7.80;;;;;;;;;;6274172;22;20007;-78
2022/05/31 08:18:34;;;;;;;13.95;7.93;;;;;;;;;;6273339;22;19999;-79
2022/05/31 08:21:00;;;;;;;12.15;6.60;;;;;;;;;;6244314;22;20458;-80
2022/05/31 08:23:26;;;;;;;9.80;6.85;;;;;;;;;;6249080;22;20004;-80
2022/05/31 08:25:54;;;;;;;12.88;7.20;;;;;;;;;;6267847;22;20007;-77
2022/05/31 08:28:20;;;;;;;10.30;6.57;;;;;;;;;;6273239;22;20008;-79
2022/05/31 08:30:46;;;;;;;9.73;6.55;;;;;;;;;;6272004;22;20072;-79
2022/05/31 08:33:13;;;;;;;11.57;6.72;;;;;;;;;;6248279;22;20160;-76
2022/05/31 08:35:42;;;;;;;12.57;6.75;;;;;;;;;;6247473;22;20008;-78
2022/05/31 08:38:09;;;;;;;9.55;6.43;;;;;;;;;;6272937;22;20006;-79
2022/05/31 08:40:55;;;;;;;11.40;6.45;;;;;;;;;;6278180;22;20399;-78
2022/05/31 08:43:22;;;;;;;14.55;7.00;;;;;;;;;;6279107;22;20481;-81
2022/05/31 08:45:53;;;;;;;9.63;6.20;;;;;;;;;;6251086;22;20476;-79
2022/05/31 08:48:35;;;;;;;12.40;7.20;;;;;;;;;;6282473;22;20008;-83
2022/05/31 08:57:05;;;;;;;13.80;6.65;;;;;;;;;;6242799;22;20431;-81
2022/05/31 08:59:35;;;;;;;12.77;6.90;;;;;;;;;;6285286;22;20309;-79
2022/05/31 09:02:03;;;;;;;14.32;6.63;;;;;;;;;;6288347;22;20008;-79
2022/05/31 09:04:41;;;;;;;;;;;;;;;;;;6264687;22;20027;-81
2022/05/31 09:07:10;;;;;;;17.80;6.82;;;;;;;;;;6285142;22;19981;-80
2022/05/31 09:09:42;;;;;;;11.73;6.80;;;;;;;;;;6255764;22;19999;-81
2022/05/31 09:12:32;;;;;;;14.27;6.50;;;;;;;;;;6283027;22;20159;-81
2022/05/31 09:15:20;;;;;;;10.77;6.28;;;;;;;;;;6283969;22;20442;-80
2022/05/31 09:18:27;;;;;;;13.80;6.72;;;;;;;;;;6275847;22;20406;-78
2022/05/31 09:20:58;;;;;;;11.18;6.65;;;;;;;;;;6231417;22;20004;-82
2022/05/31 09:23:31;;;;;;;12.52;6.55;;;;;;;;;;6279066;22;19996;-80
2022/05/31 09:26:17;;;;;;;10.85;6.88;;;;;;;;;;6252183;22;20018;-80
2022/05/31 09:28:48;;;;;;;11.55;6.45;;;;;;;;;;6196938;22;20007;-81
2022/05/31 09:31:24;;;;;;;10.43;7.10;;;;;;;;;;6259513;22;20421;-82
2022/05/31 09:34:02;;;;;;;12.35;6.72;;;;;;;;;;6278465;22;20016;-83
2022/05/31 09:36:33;;;;;;;11.02;6.93;;;;;;;;;;6253205;22;20398;-82
2022/05/31 09:39:20;;;;;;;8.75;6.18;;;;;;;;;;6277914;22;20026;-83
2022/05/31 09:41:58;;;;;;;11.95;6.22;;;;;;;;;;6277795;22;20429;-80
2022/05/31 09:44:44;;;;;;;12.05;6.30;;;;;;;;;;6226867;22;20007;-81
2022/05/31 09:47:22;;;;;;;9.00;5.65;;;;;;;;;;6270810;22;20056;-84
2022/05/31 09:49:51;;;;;;;9.30;5.70;;;;;;;;;;6273646;22;19999;-83
2022/05/31 09:52:30;;;;;;;9.98;6.07;;;;;;;;;;6254676;22;20102;-82
2022/05/31 09:57:54;;;;;;;9.98;6.63;;;;;;;;;;6272594;22;19934;-84
2022/05/31 10:00:20;;;;;;;11.77;5.97;;;;;;;;;;6273673;22;20008;-82
2022/05/31 10:03:14;;;;;;;11.40;6.03;;;;;;;;;;6272313;22;20481;-80
2022/05/31 10:05:40;;;;;;;12.05;6.57;;;;;;;;;;6270073;22;20012;-83
2022/05/31 10:08:20;;;;;;;11.05;6.78;;;;;;;;;;6275091;22;20003;-84
2022/05/31 10:10:50;;;;;;;13.30;6.32;;;;;;;;;;6250968;22;20449;-82
2022/05/31 10:13:42;;;;;;;9.65;5.70;;;;;;;;;;6272307;22;20435;-85
2022/05/31 10:16:34;;;;;;;9.27;5.82;;;;;;;;;;6286036;22;19995;-82
2022/05/31 10:19:05;;;;;;;10.05;5.97;;;;;;;;;;6278381;22;20008;-82
2022/05/31 10:21:40;;;;;;;12.25;6.00;;;;;;;;;;6274820;22;20687;-82
2022/05/31 10:24:41;;;;;;;9.00;6.18;;;;;;;;;;6273046;22;20007;-82
2022/05/31 10:27:31;;;;;;;12.80;6.45;;;;;;;;;;6121635;23;20006;-81
2022/05/31 10:30:01;;;;;;;11.63;6.57;;;;;;;;;;6243082;22;20007;-82
2022/05/31 10:32:30;;;;;;;10.40;6.25;;;;;;;;;;6198181;22;20000;-83
2022/05/31 10:35:13;;;;;;;8.68;5.93;;;;;;;;;;6245817;22;20035;-81
2022/05/31 10:38:03;;;;;;;15.68;6.30;;;;;;;;;;6251836;22;20000;-81
2022/05/31 10:41:04;;;;;;;11.43;5.18;;;;;;;;;;6237692;22;20213;-83
2022/05/31 10:43:33;;;;;;;8.43;5.82;;;;;;;;;;6244520;22;20487;-81
2022/05/31 10:46:07;;;;;;;12.65;5.90;;;;;;;;;;6223795;22;20029;-82
2022/05/31 10:48:33;;;;;;;10.38;5.75;;;;;;;;;;6253297;22;20003;-85
2022/05/31 10:51:03;;;;;;;11.93;6.10;;;;;;;;;;6222483;22;20000;-81
2022/05/31 10:53:58;;;;;;;9.13;6.05;;;;;;;;;;6251210;22;20008;-84
2022/05/31 10:56:56;;;;;;;7.72;5.45;;;;;;;;;;6247563;22;20004;-85
2022/05/31 10:59:29;;;;;;;9.02;5.90;;;;;;;;;;6224499;22;20004;-83
2022/05/31 11:02:34;;;;;;;13.15;6.15;;;;;;;;;;6286608;22;20078;-84
2022/05/31 11:05:07;;;;;;;11.07;6.18;;;;;;;;;;6199624;22;20034;-83
2022/05/31 11:11:28;;;;;;;10.70;6.20;;;;;;;;;;6227593;22;20006;-85
2022/05/31 11:13:55;;;;;;;8.82;5.60;;;;;;;;;;6259085;22;20055;-85
2022/05/31 11:16:46;;;;;;;8.63;5.93;;;;;;;;;;6290508;22;19999;-89
2022/05/31 11:19:25;;;;;;;10.68;5.97;;;;;;;;;;6286703;22;20003;-89
2022/05/31 11:21:51;;;;;;;;;;;;;;;;;;6225787;22;20146;-85
2022/05/31 11:24:29;;;;;;;12.48;5.75;;;;;;;;;;6292155;22;19925;-84
2022/05/31 11:27:26;;;;;;;12.80;6.00;;;;;;;;;;6253568;22;20003;-85
2022/05/31 11:30:04;;;;;;;10.63;5.93;;;;;;;;;;6276922;22;20026;-86
2022/05/31 11:32:50;;;;;;;10.67;6.33;;;;;;;;;;6245016;22;20042;-88
2022/05/31 11:35:37;;;;;;;9.63;6.20;;;;;;;;;;6289832;22;20027;-87
2022/05/31 11:38:04;;;;;;;21.58;10.77;;;;;;;;;;6281290;22;20004;-87
2022/05/31 11:40:41;;;;;;;16.65;8.43;;;;;;;;;;6260275;22;20003;-85
2022/05/31 11:43:31;;;;;;;10.60;6.45;;;;;;;;;;6256767;22;20027;-89
2022/05/31 11:46:23;;;;;;;8.32;6.63;;;;;;;;;;6259827;22;20039;-84
2022/05/31 11:49:00;;;;;;;10.68;6.82;;;;;;;;;;6254182;22;20027;-88
2022/05/31 11:51:37;;;;;;;20.30;6.10;;;;;;;;;;6277635;22;20008;-86
2022/05/31 11:54:34;;;;;;;9.57;6.10;;;;;;;;;;6277251;22;20470;-89
2022/05/31 11:57:11;;;;;;;12.57;6.90;;;;;;;;;;6282417;22;20006;-86
2022/05/31 11:59:41;;;;;;;10.50;6.50;;;;;;;;;;6275258;22;20011;-86
2022/05/31 12:02:25;;;;;;;9.57;6.00;;;;;;;;;;6278030;22;20003;-86
2022/05/31 12:05:16;;;;;;;8.75;6.75;;;;;;;;;;6248092;22;20346;-85
2022/05/31 12:08:00;;;;;;;15.02;8.93;;;;;;;;;;6270933;22;20004;-83
2022/05/31 12:10:59;;;;;;;16.48;7.93;;;;;;;;;;6246924;22;20008;-85
2022/05/31 12:13:24;;;;;;;14.20;6.22;;;;;;;;;;6177442;22;20427;-84
2022/05/31 12:15:51;;;;;;;11.65;6.18;;;;;;;;;;6225804;22;20010;-84
2022/05/31 12:18:31;;;;;;;14.13;5.90;;;;;;;;;;6225270;22;20006;-86
2022/05/31 12:21:23;;;;;;;14.57;6.97;;;;;;;;;;6277555;22;20007;-85
2022/05/31 12:23:57;;;;;;;10.38;6.32;;;;;;;;;;6213387;22;20553;-85
2022/05/31 12:26:35;;;;;;;14.50;6.65;;;;;;;;;;6226579;22;20000;-85
2022/05/31 12:29:15;;;;;;;15.25;6.75;;;;;;;;;;6222169;22;20003;-88
2022/05/31 12:31:41;;;;;;;9.05;6.20;;;;;;;;;;6229496;22;20025;-85
2022/05/31 12:34:20;;;;;;;13.65;6.60;;;;;;;;;;6227082;22;20027;-86
2022/05/31 12:36:57;;;;;;;11.02;6.15;;;;;;;;;;6250263;22;20109;-83
2022/05/31 12:39:27;;;;;;;12.43;6.18;;;;;;;;;;6274673;22;20000;-84
2022/05/31 12:41:53;;;;;;;12.63;6.80;;;;;;;;;;6247223;22;20442;-85
2022/05/31 12:44:30;;;;;;;10.50;6.45;;;;;;;;;;6224965;22;20071;-86
2022/05/31 12:47:08;;;;;;;13.93;6.15;;;;;;;;;;6228384;22;20061;-84
2022/05/31 12:49:33;;;;;;;11.27;5.90;;;;;;;;;;6282330;22;19999;-85
2022/05/31 12:54:56;;;;;;;10.20;5.82;;;;;;;;;;6289417;22;20019;-86
2022/05/31 13:00:41;;;;;;;13.60;5.72;;;;;;;;;;6236837;22;20362;-87
2022/05/31 13:03:35;;;;;;;14.85;5.80;;;;;;;;;;6203676;22;20030;-87
2022/05/31 13:06:10;;;;;;;10.82;5.35;;;;;;;;;;6278185;22;20140;-88
2022/05/31 13:08:57;;;;;;;9.38;5.45;;;;;;;;;;6224424;22;20453;-87
2022/05/31 13:19:43;;;;;;;12.10;5.32;;;;;;;;;;6237636;22;20014;-87
2022/05/31 13:22:10;;;;;;;10.00;4.40;;;;;;;;;;6244263;22;20007;-87
2022/05/31 13:24:42;;;;;;;11.43;5.20;;;;;;;;;;6270183;22;20015;-87
2022/05/31 13:27:08;;;;;;;12.23;5.18;;;;;;;;;;6292028;22;20002;-86
2022/05/31 13:29:33;;;;;;;6.72;4.90;;;;;;;;;;6274222;22;20004;-87
2022/05/31 13:32:00;;;;;;;7.68;5.20;;;;;;;;;;6287714;22;20026;-85
2022/05/31 13:34:37;;;;;;;8.02;4.82;;;;;;;;;;6265778;22;20011;-86
2022/05/31 13:37:12;;;;;;;14.10;5.63;;;;;;;;;;6276978;22;19996;-85
2022/05/31 13:39:43;;;;;;;9.57;4.80;;;;;;;;;;6277156;22;20008;-84
2022/05/31 13:42:16;;;;;;;8.55;5.07;;;;;;;;;;6257037;22;20003;-87
2022/05/31 13:44:42;;;;;;;7.50;4.80;;;;;;;;;;6274830;22;20019;-86
2022/05/31 13:47:08;;;;;;;12.05;4.97;;;;;;;;;;6225934;22;19996;-86
2022/05/31 13:49:37;;;;;;;11.80;5.28;;;;;;;;;;6274647;22;20351;-85
2022/05/31 13:52:05;;;;;;;16.70;5.40;;;;;;;;;;6276219;22;20065;-86
2022/05/31 13:54:39;;;;;;;10.50;5.18;;;;;;;;;;6275219;22;20030;-85
2022/05/31 13:57:04;;;;;;;12.25;5.93;;;;;;;;;;6275716;22;20047;-86
2022/05/31 13:59:50;;;;;;;15.60;6.00;;;;;;;;;;6277335;22;20007;-86
2022/05/31 14:02:26;;;;;;;12.10;6.38;;;;;;;;;;6255698;22;20494;-85
2022/05/31 14:04:59;;;;;;;9.13;5.88;;;;;;;;;;6287802;22;20035;-86
2022/05/31 14:07:32;;;;;;;11.85;6.47;;;;;;;;;;6224960;22;20004;-86
2022/05/31 14:09:58;;;;;;;10.25;6.03;;;;;;;;;;6275173;22;20636;-84
2022/05/31 14:12:25;;;;;;;11.35;6.40;;;;;;;;;;6250242;22;20000;-85
2022/05/31 14:14:52;;;;;;;11.93;6.60;;;;;;;;;;6250441;22;20003;-87
2022/05/31 14:17:36;;;;;;;11.20;6.70;;;;;;;;;;6280142;22;20407;-85
2022/05/31 14:20:02;;;;;;;14.68;6.70;;;;;;;;;;6277048;22;20010;-86
2022/05/31 14:22:34;;;;;;;11.60;6.78;;;;;;;;;;6279870;22;20026;-87
2022/05/31 14:25:02;;;;;;;11.45;5.90;;;;;;;;;;6281325;22;20065;-84
2022/05/31 14:27:27;;;;;;;18.60;6.75;;;;;;;;;;6255338;22;20082;-88
2022/05/31 14:30:05;;;;;;;11.35;6.35;;;;;;;;;;6255793;22;20030;-87
2022/05/31 14:32:42;;;;;;;11.30;6.80;;;;;;;;;;6284970;22;20022;-85
2022/05/31 14:35:37;;;;;;;10.05;6.38;;;;;;;;;;6262040;22;20027;-84
2022/05/31 14:38:04;;;;;;;15.98;7.05;;;;;;;;;;6265482;22;20330;-84
2022/05/31 14:40:36;;;;;;;11.00;7.15;;;;;;;;;;6254992;22;20389;-87
2022/05/31 14:43:13;;;;;;;10.40;6.50;;;;;;;;;;6277590;22;20031;-87
2022/05/31 14:45:48;;;;;;;10.77;7.32;;;;;;;;;;6279972;22;19996;-86
2022/05/31 14:48:35;;;;;;;14.27;7.80;;;;;;;;;;6284822;22;20000;-85
2022/05/31 14:51:21;;;;;;;19.02;8.93;;;;;;;;;;6281217;22;20000;-87
2022/05/31 14:53:52;;;;;;;17.10;9.27;;;;;;;;;;6250624;22;20435;-85
2022/05/31 14:56:21;;;;;;;18.27;9.50;;;;;;;;;;6278629;22;20010;-88
2022/05/31 14:58:52;;;;;;;19.08;9.93;;;;;;;;;;6277907;22;19999;-86
2022/05/31 15:01:34;;;;;;;25.55;9.02;;;;;;;;;;6226309;22;20008;-86
2022/05/31 15:04:14;;;;;;;15.27;8.23;;;;;;;;;;6226518;22;20510;-88
2022/05/31 15:06:40;;;;;;;13.32;7.30;;;;;;;;;;6277991;22;20011;-86
2022/05/31 15:09:21;;;;;;;16.60;7.93;;;;;;;;;;6286894;22;20003;-87
2022/05/31 15:20:16;;;;;;;17.50;6.88;;;;;;;;;;6291614;22;20052;-86
2022/05/31 15:22:42;;;;;;;11.40;6.43;;;;;;;;;;6287399;22;20004;-87
2022/05/31 15:25:08;;;;;;;12.85;6.28;;;;;;;;;;6295738;22;20003;-86
2022/05/31 15:27:36;;;;;;;11.95;6.00;;;;;;;;;;6286932;22;20004;-85
2022/05/31 15:30:02;;;;;;;11.20;5.75;;;;;;;;;;6254486;22;20493;-86
2022/05/31 15:32:27;;;;;;;10.93;6.55;;;;;;;;;;6294836;22;20034;-87
2022/05/31 15:34:53;;;;;;;13.65;6.00;;;;;;;;;;6287429;22;20004;-86
2022/05/31 15:37:21;;;;;;;13.13;5.90;;;;;;;;;;6255443;22;20174;-85
2022/05/31 15:39:47;;;;;;;11.73;6.03;;;;;;;;;;6254742;22;20015;-88
2022/05/31 15:42:15;;;;;;;11.77;6.55;;;;;;;;;;6253680;22;20004;-86
2022/05/31 15:44:40;;;;;;;13.55;5.60;;;;;;;;;;6277709;22;20023;-87